Weather History for Newcastle, WY

Change the Weather History Date:

Saturday, September 7, 2013

  Actual Average (KCUT) Record (KCUT)
Temperature  
Mean Temperature 74 °F 58 °F  
Max Temperature 89 °F 72 °F 90 °F (1978)
Min Temperature 60 °F 44 °F 28 °F (1956)
Degree Days  
Heating Degree Days 0 8  
Month to date heating degree days 46  
Since 1 July heating degree days 200  
Cooling Degree Days 10 1  
Month to date cooling degree days 7  
Year to date cooling degree days 173  
Growing Degree Days 24 (Base 50)    
Moisture  
Dew Point 50 °F    
Average Humidity 40    
Maximum Humidity 68    
Minimum Humidity 21    
Precipitation  
Precipitation 0.00 in 0.06 in 1.38 in (1989)
Month to date precipitation 0.46  
Year to date precipitation 15.38  
Sea Level Pressure  
Sea Level Pressure 30.07 in    
Wind  
Wind Speed 7 mph (ESE)    
Max Wind Speed 17 mph    
Max Gust Speed 24 mph    
Visibility 10 miles    
Events      
T = Trace of Precipitation, MM = Missing Value Source: NWS Daily Summary

Daily Weather History Graph

Daily Weather History Graph

Search for Another Location

Airport:

Trip Planner

Search our weather history database for the weather conditions in past years. The results will help you decide how hot, cold, wet, or windy it might be!

Date:

Astronomy

Sep. 07, 2013 Rise Set
Actual Time 6:27 AM MDT 7:21 PM MDT
Civil Twilight 5:58 AM MDT 7:50 PM MDT
Nautical Twilight 5:23 AM MDT 8:25 PM MDT
Astronomical Twilight 4:47 AM MDT 9:02 PM MDT
Moon 8:51 AM MDT (9/7) 8:14 PM MDT (9/7)
Length of Visible Light 13h 52m
Length of Day
12h 53m
Waxing Crescent, 5% of the Moon is Illuminated
Sep 7
Waxing Crescent
Sep 12
First Quarter
Sep 19
Full
Sep 26
Last Quarter
Oct 4
New

Hourly Weather History & Observations

Time (MDT) Temp. Heat Index Dew Point Humidity Pressure Visibility Wind Dir Wind Speed Gust Speed Precip Events Conditions
12:15 AM 77.0 °F - 50.0 °F 39% 30.07 in 10.0 mi East 8.1 mph - N/A   Clear
12:35 AM 75.2 °F - 50.0 °F 41% 30.07 in 10.0 mi East 6.9 mph - N/A   Clear
12:55 AM 73.4 °F - 50.0 °F 44% 30.07 in 10.0 mi East 8.1 mph - N/A   Clear
1:15 AM 75.2 °F - 48.2 °F 38% 30.06 in 10.0 mi East 8.1 mph - N/A   Clear
1:35 AM 77.0 °F - 48.2 °F 36% 30.06 in 10.0 mi NE 8.1 mph - N/A   Clear
1:55 AM 71.6 °F - 50.0 °F 46% 30.07 in 10.0 mi WNW 6.9 mph - N/A   Clear
2:15 AM 68.0 °F - 50.0 °F 52% 30.06 in 10.0 mi Calm Calm - N/A   Clear
2:35 AM 68.0 °F - 50.0 °F 52% 30.07 in 10.0 mi NW 4.6 mph - N/A   Clear
2:55 AM 69.8 °F - 50.0 °F 49% 30.06 in 10.0 mi NNW 6.9 mph - N/A   Clear
3:15 AM 68.0 °F - 50.0 °F 52% 30.06 in 10.0 mi North 10.4 mph - N/A   Clear
3:35 AM 66.2 °F - 50.0 °F 56% 30.08 in 10.0 mi Calm Calm - N/A   Clear
3:55 AM 64.4 °F - 50.0 °F 59% 30.08 in 10.0 mi North - - N/A   Clear
4:15 AM 62.6 °F - 50.0 °F 63% 30.08 in 10.0 mi Calm Calm - N/A   Clear
4:35 AM 62.6 °F - 50.0 °F 63% 30.08 in 10.0 mi NE 5.8 mph - N/A   Clear
4:55 AM 64.4 °F - 50.0 °F 59% 30.08 in 10.0 mi SSW 3.5 mph - N/A   Clear
5:15 AM 68.0 °F - 48.2 °F 49% 30.08 in 10.0 mi Calm Calm - N/A   Clear
5:35 AM 64.4 °F - 48.2 °F 56% 30.07 in 10.0 mi East 4.6 mph - N/A   Clear
5:55 AM 62.6 °F - 48.2 °F 59% 30.08 in 10.0 mi Calm Calm - N/A   Clear
6:15 AM 64.4 °F - 50.0 °F 59% 30.08 in 10.0 mi Calm Calm - N/A   Clear
6:35 AM 64.4 °F - 50.0 °F 59% 30.08 in 10.0 mi Calm Calm - N/A   Clear
6:55 AM 62.6 °F - 48.2 °F 59% 30.09 in 10.0 mi Calm Calm - N/A   Clear
7:15 AM 62.6 °F - 50.0 °F 63% 30.10 in 10.0 mi Calm Calm - N/A   Clear
7:35 AM 60.8 °F - 50.0 °F 68% 30.12 in 10.0 mi Calm Calm - N/A   Clear
7:55 AM 64.4 °F - 50.0 °F 59% 30.12 in 10.0 mi North - - N/A   Clear
8:15 AM 69.8 °F - 51.8 °F 53% 30.12 in 10.0 mi SE 5.8 mph - N/A   Clear
8:35 AM 71.6 °F - 50.0 °F 46% 30.12 in 10.0 mi SSE 6.9 mph - N/A   Clear
8:55 AM 71.6 °F - 50.0 °F 46% 30.12 in 10.0 mi SE 5.8 mph - N/A   Clear
9:15 AM 73.4 °F - 50.0 °F 44% 30.12 in 10.0 mi Calm Calm - N/A   Clear
9:35 AM 75.2 °F - 50.0 °F 41% 30.13 in 10.0 mi SSE 4.6 mph - N/A   Clear
9:55 AM 77.0 °F - 50.0 °F 39% 30.13 in 10.0 mi South 4.6 mph - N/A   Clear
10:15 AM 77.0 °F - 50.0 °F 39% 30.13 in 10.0 mi SE 3.5 mph - N/A   Clear
10:35 AM 77.0 °F - 51.8 °F 41% 30.13 in 10.0 mi North - - N/A   Clear
10:55 AM 78.8 °F - 51.8 °F 39% 30.13 in 10.0 mi SSE 10.4 mph - N/A   Clear
11:15 AM 82.4 °F - 51.8 °F 35% 30.13 in 10.0 mi ESE 8.1 mph - N/A   Clear
11:35 AM 80.6 °F - 51.8 °F 37% 30.13 in 10.0 mi SE 9.2 mph - N/A   Clear
11:55 AM 80.6 °F - 51.8 °F 37% 30.12 in 10.0 mi ESE 9.2 mph - N/A   Clear
12:15 PM 82.4 °F - 51.8 °F 35% 30.11 in 10.0 mi SE 11.5 mph 16.1 mph N/A   Clear
12:35 PM 80.6 °F - 50.0 °F 34% 30.11 in 10.0 mi SE 12.7 mph - N/A   Clear
12:55 PM 80.6 °F - 50.0 °F 34% 30.10 in 10.0 mi SE 9.2 mph - N/A   Clear
1:15 PM 82.4 °F - 50.0 °F 32% 30.10 in 10.0 mi ESE 4.6 mph - N/A   Clear
1:35 PM 82.4 °F - 50.0 °F 32% 30.09 in 10.0 mi North - - N/A   Clear
1:55 PM 84.2 °F - 50.0 °F 30% 30.09 in 10.0 mi SE 9.2 mph - N/A   Clear
2:15 PM 84.2 °F - 50.0 °F 30% 30.09 in 10.0 mi SE 11.5 mph - N/A   Clear
2:35 PM 87.8 °F - 50.0 °F 27% 30.08 in 10.0 mi SE 5.8 mph - N/A   Clear
2:55 PM 87.8 °F - 46.4 °F 24% 30.08 in 10.0 mi ESE 6.9 mph 16.1 mph N/A   Clear
3:15 PM 87.8 °F - 46.4 °F 24% 30.07 in 10.0 mi SE 10.4 mph 17.3 mph N/A   Clear
3:35 PM 89.6 °F - 44.6 °F 21% 30.06 in 10.0 mi ESE 10.4 mph 17.3 mph N/A   Clear
3:55 PM 89.6 °F - 44.6 °F 21% 30.05 in 10.0 mi SSE 8.1 mph 17.3 mph N/A   Clear
4:15 PM 89.6 °F - 44.6 °F 21% 30.05 in 10.0 mi SE 12.7 mph 17.3 mph N/A   Clear
4:35 PM 89.6 °F - 44.6 °F 21% 30.04 in 10.0 mi ESE 5.8 mph - N/A   Clear
4:55 PM 89.6 °F - 44.6 °F 21% 30.04 in 10.0 mi SE 8.1 mph - N/A   Clear
5:15 PM 89.6 °F - 44.6 °F 21% 30.04 in 10.0 mi SSE 9.2 mph - N/A   Clear
5:35 PM 89.6 °F - 44.6 °F 21% 30.03 in 10.0 mi SE 6.9 mph - N/A   Clear
5:55 PM 89.6 °F - 44.6 °F 21% 30.03 in 10.0 mi SE 8.1 mph - N/A   Clear
6:15 PM 87.8 °F - 46.4 °F 24% 30.02 in 10.0 mi SSE 6.9 mph - N/A   Clear
6:35 PM 87.8 °F - 46.4 °F 24% 30.02 in 10.0 mi SE 8.1 mph - N/A   Clear
6:55 PM 84.2 °F - 46.4 °F 27% 30.02 in 10.0 mi SE 6.9 mph - N/A   Clear
7:15 PM 80.6 °F - 46.4 °F 30% 30.00 in 10.0 mi ESE 8.1 mph - N/A   Clear
7:35 PM 80.6 °F - 48.2 °F 32% 30.00 in 10.0 mi ESE 9.2 mph - N/A   Clear
7:55 PM 80.6 °F - 48.2 °F 32% 30.00 in 10.0 mi ESE 9.2 mph - N/A   Clear
8:15 PM 80.6 °F - 50.0 °F 34% 30.00 in 10.0 mi ESE 10.4 mph - N/A   Clear
8:35 PM 80.6 °F - 51.8 °F 37% 30.00 in 10.0 mi ESE 13.8 mph - N/A   Clear
8:55 PM 80.6 °F - 51.8 °F 37% 30.01 in 10.0 mi ESE 12.7 mph 18.4 mph N/A   Clear
9:15 PM 80.6 °F - 51.8 °F 37% 30.01 in 10.0 mi East 11.5 mph - N/A   Clear
9:35 PM 80.6 °F 80.3 °F 53.6 °F 39% 30.01 in 10.0 mi East 13.8 mph - N/A   Clear
9:55 PM 80.6 °F 80.3 °F 53.6 °F 39% 30.01 in 10.0 mi East 12.7 mph - N/A   Clear
10:15 PM 80.6 °F 80.5 °F 55.4 °F 42% 30.02 in 10.0 mi East 17.3 mph 24.2 mph N/A   Clear
10:35 PM 80.6 °F 80.5 °F 55.4 °F 42% 30.00 in 10.0 mi ESE 13.8 mph 21.9 mph N/A   Clear
10:55 PM 80.6 °F 80.5 °F 55.4 °F 42% 30.00 in 10.0 mi ESE 15.0 mph 23.0 mph N/A   Clear
11:15 PM 78.8 °F - 55.4 °F 44% 30.00 in 10.0 mi ESE 12.7 mph 23.0 mph N/A   Clear
11:35 PM 78.8 °F - 55.4 °F 44% 30.01 in 10.0 mi ESE 13.8 mph 19.6 mph N/A   Clear
11:55 PM 78.8 °F - 55.4 °F 44% 30.00 in 10.0 mi North - - N/A   Clear